createdAt,value
2022-12-31T00:00:11.264Z,99.10
2022-12-31T00:00:46.975Z,98.67
2022-12-31T00:01:19.970Z,98.20
2022-12-31T00:01:51.846Z,98.77
2022-12-31T00:02:23.940Z,98.69
2022-12-31T00:02:56.042Z,98.92
2022-12-31T00:03:28.185Z,99.49
2022-12-31T00:04:00.171Z,99.88
2022-12-31T00:04:32.049Z,99.56
2022-12-31T00:05:04.529Z,98.70
2022-12-31T00:05:37.147Z,98.39
2022-12-31T00:06:16.101Z,98.42
2022-12-31T00:06:48.239Z,97.83
2022-12-31T00:07:20.122Z,98.51
2022-12-31T00:07:52.064Z,98.99
2022-12-31T00:08:24.026Z,98.54
2022-12-31T00:08:58.143Z,98.60
2022-12-31T00:09:29.999Z,99.04
2022-12-31T00:10:02.770Z,99.47
2022-12-31T00:10:41.249Z,99.56
2022-12-31T00:11:14.231Z,99.85
2022-12-31T00:11:46.058Z,100.00
2022-12-31T00:12:17.925Z,100.00
2022-12-31T00:12:50.141Z,100.00
2022-12-31T00:13:22.027Z,100.00
2022-12-31T00:13:54.812Z,99.50
2022-12-31T00:14:26.698Z,99.77
2022-12-31T00:14:58.582Z,100.00
2022-12-31T00:15:30.757Z,100.00
2022-12-31T00:16:12.530Z,100.00
2022-12-31T00:16:44.852Z,100.00
2022-12-31T00:17:16.861Z,99.99
2022-12-31T00:17:48.862Z,100.00
2022-12-31T00:18:20.769Z,100.00
2022-12-31T00:18:55.449Z,99.69
2022-12-31T00:19:27.286Z,99.95
2022-12-31T00:19:59.111Z,100.00
2022-12-31T00:20:31.278Z,100.00
2022-12-31T00:21:10.087Z,100.00
2022-12-31T00:21:43.517Z,99.21
2022-12-31T00:22:15.697Z,98.43
2022-12-31T00:22:47.513Z,98.32
2022-12-31T00:23:19.349Z,98.86
2022-12-31T00:23:52.692Z,98.54
2022-12-31T00:24:24.584Z,98.41
2022-12-31T00:24:56.419Z,98.89
2022-12-31T00:25:28.325Z,98.51
2022-12-31T00:26:04.806Z,98.71
2022-12-31T00:26:36.760Z,98.88
2022-12-31T00:27:08.606Z,98.90
2022-12-31T00:27:40.729Z,98.87
2022-12-31T00:28:12.555Z,98.57
2022-12-31T00:28:45.137Z,98.68
2022-12-31T00:29:16.959Z,98.76
2022-12-31T00:29:48.779Z,98.93
2022-12-31T00:30:20.665Z,98.81
2022-12-31T00:30:52.577Z,98.79
2022-12-31T00:31:29.887Z,98.72
2022-12-31T00:32:01.745Z,98.40
2022-12-31T00:32:33.610Z,98.24
2022-12-31T00:33:05.754Z,97.78
2022-12-31T00:33:38.337Z,97.92
2022-12-31T00:34:10.171Z,97.99
2022-12-31T00:34:42.030Z,97.96
2022-12-31T00:35:13.919Z,98.06
2022-12-31T00:35:45.741Z,97.97
2022-12-31T00:36:23.721Z,97.69
2022-12-31T00:36:55.579Z,97.09
2022-12-31T00:37:27.541Z,97.43
2022-12-31T00:37:59.409Z,97.33
2022-12-31T00:38:31.822Z,96.91
2022-12-31T00:39:05.966Z,96.90
2022-12-31T00:39:37.835Z,97.34
2022-12-31T00:40:10.569Z,97.38
2022-12-31T00:40:42.398Z,96.93
2022-12-31T00:41:16.055Z,96.58
2022-12-31T00:41:47.880Z,96.35
2022-12-31T00:42:19.748Z,96.27
2022-12-31T00:42:51.672Z,96.34
2022-12-31T00:43:23.517Z,96.10
2022-12-31T00:43:55.847Z,96.47
2022-12-31T00:44:27.721Z,97.06
2022-12-31T00:44:59.590Z,97.34
2022-12-31T00:45:31.437Z,97.22
2022-12-31T00:46:03.828Z,97.03
2022-12-31T00:47:09.086Z,96.15
2022-12-31T00:47:40.967Z,95.88
2022-12-31T00:48:12.812Z,95.77
2022-12-31T00:48:44.854Z,95.42
2022-12-31T00:49:17.158Z,95.25
2022-12-31T00:49:49.249Z,95.25
2022-12-31T00:50:21.130Z,94.54
2022-12-31T00:50:54.209Z,93.81
2022-12-31T00:51:27.814Z,93.71
2022-12-31T00:51:59.907Z,93.88
2022-12-31T00:52:31.759Z,94.07
2022-12-31T00:53:03.588Z,94.55
2022-12-31T00:53:35.716Z,94.65
2022-12-31T00:54:08.575Z,95.40
2022-12-31T00:54:40.702Z,95.33
2022-12-31T00:55:12.645Z,95.16
2022-12-31T00:55:44.617Z,94.95
2022-12-31T00:56:19.382Z,94.72
2022-12-31T00:56:51.226Z,94.72
2022-12-31T00:57:23.085Z,94.94
2022-12-31T00:57:54.922Z,95.18
2022-12-31T00:58:27.168Z,95.14
2022-12-31T00:59:00.191Z,95.26
2022-12-31T00:59:32.069Z,95.66
2022-12-31T01:00:07.279Z,95.81
2022-12-31T01:00:39.644Z,95.77
2022-12-31T01:01:15.059Z,95.42
2022-12-31T01:01:47.136Z,95.01
2022-12-31T01:02:19.283Z,95.07
2022-12-31T01:02:51.317Z,95.33
2022-12-31T01:03:23.613Z,95.41
2022-12-31T01:03:59.699Z,95.13
2022-12-31T01:04:31.542Z,94.57
2022-12-31T01:05:03.440Z,95.09
2022-12-31T01:05:36.531Z,95.37
2022-12-31T01:06:08.680Z,95.53
2022-12-31T01:06:41.722Z,95.55
2022-12-31T01:07:13.568Z,95.50
2022-12-31T01:07:45.463Z,95.41
2022-12-31T01:08:18.329Z,95.24
2022-12-31T01:08:51.058Z,94.49
2022-12-31T01:09:22.915Z,94.07
2022-12-31T01:09:54.864Z,94.15
2022-12-31T01:10:45.258Z,94.54
2022-12-31T01:11:24.023Z,94.75
2022-12-31T01:11:56.003Z,94.20
2022-12-31T01:12:27.889Z,94.69
2022-12-31T01:12:59.820Z,94.61
2022-12-31T01:13:31.661Z,94.74
2022-12-31T01:14:21.390Z,94.25
2022-12-31T01:14:53.246Z,94.00
2022-12-31T01:15:25.223Z,94.10
2022-12-31T01:15:57.109Z,94.03
2022-12-31T01:16:37.130Z,94.95
2022-12-31T01:17:09.075Z,95.69
2022-12-31T01:17:40.915Z,95.63
2022-12-31T01:18:13.555Z,95.77
2022-12-31T01:18:45.964Z,95.87
2022-12-31T01:19:21.596Z,95.70
2022-12-31T01:19:53.615Z,95.53
2022-12-31T01:20:25.527Z,95.10
2022-12-31T01:21:03.355Z,95.18
2022-12-31T01:21:37.240Z,94.80
2022-12-31T01:22:09.119Z,94.84
2022-12-31T01:22:40.987Z,94.93
2022-12-31T01:23:12.938Z,94.93
2022-12-31T01:23:45.595Z,94.77
2022-12-31T01:24:17.949Z,94.29
2022-12-31T01:24:49.811Z,94.25
2022-12-31T01:25:21.756Z,94.23
2022-12-31T01:25:53.594Z,94.40
2022-12-31T01:26:25.747Z,94.85
2022-12-31T01:26:58.044Z,94.87
2022-12-31T01:27:30.906Z,94.78
2022-12-31T01:28:03.583Z,95.06
2022-12-31T01:28:36.166Z,94.93
2022-12-31T01:29:09.448Z,94.50
2022-12-31T01:29:41.300Z,94.69
2022-12-31T01:30:13.383Z,94.75
2022-12-31T01:30:45.259Z,94.68
2022-12-31T01:31:19.339Z,94.86
2022-12-31T01:31:51.300Z,94.83
2022-12-31T01:32:23.449Z,94.85
2022-12-31T01:32:55.357Z,94.79
2022-12-31T01:33:27.229Z,94.59
2022-12-31T01:33:59.143Z,94.43
2022-12-31T01:34:31.051Z,94.28
2022-12-31T01:35:02.939Z,94.24
2022-12-31T01:35:36.170Z,94.14
2022-12-31T01:36:21.731Z,94.20
2022-12-31T01:36:57.046Z,93.82
2022-12-31T01:37:29.244Z,94.24
2022-12-31T01:38:01.157Z,94.63
2022-12-31T01:38:34.375Z,94.83
2022-12-31T01:39:08.482Z,94.92
2022-12-31T01:39:40.311Z,94.92
2022-12-31T01:40:12.601Z,94.68
2022-12-31T01:40:44.597Z,94.68
2022-12-31T01:41:21.881Z,94.48
2022-12-31T01:41:53.739Z,94.30
2022-12-31T01:42:25.582Z,94.06
2022-12-31T01:42:58.470Z,93.95
2022-12-31T01:44:11.483Z,93.87
2022-12-31T01:44:48.831Z,93.56
2022-12-31T01:45:20.740Z,93.77
2022-12-31T01:45:54.590Z,93.83
2022-12-31T01:46:55.187Z,94.14
2022-12-31T01:47:37.638Z,94.83
2022-12-31T01:48:14.149Z,95.03
2022-12-31T01:48:50.962Z,95.43
2022-12-31T01:49:54.663Z,95.01
2022-12-31T01:50:33.716Z,94.72
2022-12-31T01:51:08.861Z,94.53
2022-12-31T01:51:43.184Z,94.19
2022-12-31T01:52:18.073Z,94.00
2022-12-31T01:52:58.405Z,93.91
2022-12-31T01:53:31.074Z,94.14
2022-12-31T01:54:07.114Z,94.00
2022-12-31T01:54:44.721Z,93.89
2022-12-31T01:55:29.546Z,94.04
2022-12-31T01:56:02.810Z,94.15
2022-12-31T01:56:36.065Z,93.94
2022-12-31T01:57:09.513Z,94.06
2022-12-31T01:57:42.994Z,94.17
2022-12-31T01:58:19.833Z,94.08
2022-12-31T01:58:55.852Z,94.03
2022-12-31T01:59:29.231Z,94.09
2022-12-31T02:00:02.527Z,94.21
2022-12-31T02:00:36.960Z,94.60
2022-12-31T02:01:12.238Z,94.89
2022-12-31T02:01:46.759Z,94.26
2022-12-31T02:02:18.939Z,93.74
2022-12-31T02:02:51.526Z,93.81
2022-12-31T02:03:26.176Z,93.83
2022-12-31T02:04:00.800Z,94.12
2022-12-31T02:04:32.783Z,94.71
2022-12-31T02:05:13.742Z,94.83
2022-12-31T02:05:54.558Z,94.91
2022-12-31T02:06:37.624Z,94.90
2022-12-31T02:07:11.353Z,94.82
2022-12-31T02:07:43.893Z,94.85
2022-12-31T02:08:16.278Z,94.72
2022-12-31T02:08:48.638Z,94.54
2022-12-31T02:09:21.068Z,94.44
2022-12-31T02:09:54.180Z,94.79
2022-12-31T02:10:26.264Z,94.91
2022-12-31T02:10:58.098Z,94.74
2022-12-31T02:11:36.398Z,94.58
2022-12-31T02:12:09.692Z,94.60
2022-12-31T02:12:41.808Z,94.41
2022-12-31T02:13:15.039Z,94.29
2022-12-31T02:13:46.982Z,94.52
2022-12-31T02:14:22.979Z,94.84
2022-12-31T02:14:55.992Z,95.06
2022-12-31T02:15:38.171Z,95.11
2022-12-31T02:16:21.288Z,94.60
2022-12-31T02:17:27.609Z,94.13
2022-12-31T02:18:14.185Z,94.83
2022-12-31T02:19:04.897Z,95.44
2022-12-31T02:19:45.570Z,95.13
2022-12-31T02:20:49.151Z,95.02
2022-12-31T02:22:00.857Z,94.92
2022-12-31T02:22:54.537Z,94.96
2022-12-31T02:23:55.647Z,94.61
2022-12-31T02:24:57.766Z,94.23
2022-12-31T02:25:50.965Z,94.13
2022-12-31T02:26:44.245Z,94.15
2022-12-31T02:28:03.035Z,93.84
2022-12-31T02:28:49.456Z,94.12
2022-12-31T02:29:21.231Z,95.05
2022-12-31T02:29:58.976Z,95.47
2022-12-31T02:30:32.758Z,96.05
2022-12-31T02:31:26.313Z,96.74
2022-12-31T02:32:04.226Z,96.60
2022-12-31T02:32:51.199Z,96.60
2022-12-31T02:33:36.206Z,96.55
2022-12-31T02:34:26.660Z,96.37
2022-12-31T02:35:17.980Z,96.95
2022-12-31T02:35:55.338Z,96.82
2022-12-31T02:36:37.956Z,96.56
2022-12-31T02:37:14.796Z,96.32
2022-12-31T02:37:50.316Z,96.31
2022-12-31T02:38:31.215Z,96.25
2022-12-31T02:39:06.101Z,96.44
2022-12-31T02:39:39.437Z,96.59
2022-12-31T02:40:15.979Z,96.33
2022-12-31T02:40:48.432Z,95.96
2022-12-31T02:41:39.741Z,96.11
2022-12-31T02:42:12.338Z,96.09
2022-12-31T02:42:45.563Z,95.51
2022-12-31T02:43:19.225Z,95.77
2022-12-31T02:43:51.092Z,96.29
2022-12-31T02:44:25.014Z,96.59
2022-12-31T02:44:57.229Z,96.42
2022-12-31T02:45:40.398Z,95.99
2022-12-31T02:46:25.912Z,95.74
2022-12-31T02:47:09.823Z,95.75
2022-12-31T02:48:09.936Z,95.75
2022-12-31T02:49:03.435Z,95.84
2022-12-31T02:49:56.878Z,95.48
2022-12-31T02:50:58.144Z,95.38
2022-12-31T02:52:02.323Z,95.28
2022-12-31T02:52:48.937Z,95.16
2022-12-31T02:53:29.437Z,94.89
2022-12-31T02:54:10.071Z,94.70
2022-12-31T02:54:54.136Z,94.53
2022-12-31T02:55:31.175Z,94.42
2022-12-31T02:56:16.533Z,94.41
2022-12-31T02:57:07.012Z,94.48
2022-12-31T02:57:58.057Z,94.39
2022-12-31T02:59:00.518Z,94.08
2022-12-31T02:59:55.945Z,94.46
2022-12-31T03:00:51.080Z,94.81
2022-12-31T03:02:07.029Z,95.07
2022-12-31T03:02:42.292Z,94.96
2022-12-31T03:03:14.482Z,94.45
2022-12-31T03:03:46.358Z,94.08
2022-12-31T03:04:35.790Z,93.86
2022-12-31T03:05:09.833Z,94.03
2022-12-31T03:05:44.773Z,94.27
2022-12-31T03:06:16.751Z,93.99
2022-12-31T03:06:49.644Z,93.81
2022-12-31T03:07:28.193Z,93.70
2022-12-31T03:08:00.043Z,93.83
2022-12-31T03:08:31.914Z,93.95
2022-12-31T03:09:13.135Z,94.20
2022-12-31T03:09:45.050Z,94.46
2022-12-31T03:10:17.129Z,94.38
2022-12-31T03:10:49.809Z,94.07
2022-12-31T03:11:40.461Z,93.87
2022-12-31T03:12:32.692Z,94.29
2022-12-31T03:13:04.576Z,94.43
2022-12-31T03:13:36.525Z,94.25
2022-12-31T03:14:08.396Z,94.03
2022-12-31T03:14:40.512Z,93.78
2022-12-31T03:15:20.065Z,93.73
2022-12-31T03:15:52.247Z,93.73
2022-12-31T03:16:24.208Z,93.58
2022-12-31T03:16:56.082Z,93.71
2022-12-31T03:17:28.270Z,93.77
2022-12-31T03:18:40.257Z,93.61
2022-12-31T03:19:30.561Z,93.17
2022-12-31T03:20:20.897Z,92.93
2022-12-31T03:21:11.992Z,93.37
2022-12-31T03:22:02.321Z,93.66
2022-12-31T03:22:38.797Z,93.75
2022-12-31T03:23:13.055Z,93.48
2022-12-31T03:23:50.247Z,92.95
2022-12-31T03:24:42.240Z,92.83
2022-12-31T03:25:36.387Z,92.70
2022-12-31T03:26:11.458Z,92.66
2022-12-31T03:26:43.404Z,92.55
2022-12-31T03:27:15.268Z,92.43
2022-12-31T03:27:47.875Z,92.34
2022-12-31T03:28:22.666Z,92.28
2022-12-31T03:28:54.535Z,92.28
2022-12-31T03:29:26.577Z,92.23
2022-12-31T03:29:58.413Z,91.97
2022-12-31T03:30:31.898Z,91.78
2022-12-31T03:31:05.382Z,92.46
2022-12-31T03:31:37.430Z,92.61
2022-12-31T03:32:09.368Z,92.85
2022-12-31T03:32:42.319Z,92.92
2022-12-31T03:33:15.795Z,92.78
2022-12-31T03:33:47.609Z,92.87
2022-12-31T03:34:19.468Z,93.22
2022-12-31T03:34:51.335Z,93.43
2022-12-31T03:35:24.155Z,93.47
2022-12-31T03:35:56.073Z,93.56
2022-12-31T03:36:27.925Z,93.68
2022-12-31T03:36:59.729Z,93.80
2022-12-31T03:37:31.635Z,93.80
2022-12-31T03:38:04.272Z,93.37
2022-12-31T03:38:36.752Z,93.48
2022-12-31T03:39:08.612Z,93.69
2022-12-31T03:39:40.484Z,93.42
2022-12-31T03:40:13.964Z,93.12
2022-12-31T03:40:51.453Z,92.97
2022-12-31T03:41:23.283Z,92.67
2022-12-31T03:41:55.130Z,92.51
2022-12-31T03:42:27.034Z,92.47
2022-12-31T03:42:58.937Z,92.42
2022-12-31T03:43:30.876Z,92.67
2022-12-31T03:44:03.267Z,92.75
2022-12-31T03:44:35.104Z,92.83
2022-12-31T03:45:08.339Z,92.82
2022-12-31T03:45:40.855Z,93.25
2022-12-31T03:46:12.792Z,93.51
2022-12-31T03:46:44.743Z,93.36
2022-12-31T03:47:16.567Z,93.19
2022-12-31T03:47:48.546Z,93.14
2022-12-31T03:48:23.707Z,92.98
2022-12-31T03:48:55.543Z,93.44
2022-12-31T03:49:27.770Z,93.63
2022-12-31T03:49:59.597Z,93.69
2022-12-31T03:50:31.497Z,93.59
2022-12-31T03:51:03.356Z,93.50
2022-12-31T03:51:35.209Z,93.23
2022-12-31T03:52:08.655Z,93.72
2022-12-31T03:52:40.861Z,94.14
2022-12-31T03:53:12.856Z,94.33
2022-12-31T03:53:44.693Z,94.25
2022-12-31T03:54:16.516Z,94.31
2022-12-31T03:54:48.658Z,94.06
2022-12-31T03:55:20.507Z,93.83
2022-12-31T03:55:53.566Z,93.89
2022-12-31T03:56:25.457Z,93.86
2022-12-31T03:57:00.267Z,93.53
2022-12-31T03:57:32.919Z,93.18
2022-12-31T03:58:04.827Z,93.30
2022-12-31T03:58:36.675Z,93.66
2022-12-31T03:59:08.582Z,93.63
2022-12-31T03:59:40.439Z,93.70
2022-12-31T04:00:15.696Z,93.92
2022-12-31T04:00:47.952Z,94.57
2022-12-31T04:01:19.967Z,94.32
2022-12-31T04:01:51.997Z,94.12
2022-12-31T04:02:28.875Z,94.13
2022-12-31T04:03:01.468Z,93.78
2022-12-31T04:03:33.361Z,93.57
2022-12-31T04:04:05.190Z,93.53
2022-12-31T04:04:37.039Z,93.25
2022-12-31T04:05:09.182Z,93.25
2022-12-31T04:05:41.242Z,93.53
2022-12-31T04:06:13.480Z,93.82
2022-12-31T04:06:45.378Z,93.72
2022-12-31T04:07:17.233Z,93.62
2022-12-31T04:07:49.220Z,93.48
2022-12-31T04:08:21.170Z,93.46
2022-12-31T04:08:53.033Z,93.56
2022-12-31T04:09:24.978Z,93.46
2022-12-31T04:09:57.207Z,93.28
2022-12-31T04:10:29.074Z,93.08
2022-12-31T04:11:00.911Z,93.12
2022-12-31T04:11:33.097Z,93.09
2022-12-31T04:12:05.947Z,93.41
2022-12-31T04:12:38.676Z,93.39
2022-12-31T04:13:10.489Z,93.16
2022-12-31T04:13:42.345Z,92.88
2022-12-31T04:14:14.285Z,92.83
2022-12-31T04:14:46.180Z,92.52
2022-12-31T04:15:20.671Z,92.36
2022-12-31T04:15:52.512Z,92.34
2022-12-31T04:16:24.341Z,92.01
2022-12-31T04:16:56.499Z,92.07
2022-12-31T04:17:28.527Z,92.02
2022-12-31T04:18:00.458Z,92.05
2022-12-31T04:18:32.295Z,92.08
2022-12-31T04:19:04.237Z,91.89
2022-12-31T04:19:36.124Z,91.91
2022-12-31T04:20:08.696Z,91.91
2022-12-31T04:20:40.529Z,92.25
2022-12-31T04:21:12.383Z,92.93
2022-12-31T04:21:45.172Z,93.14
2022-12-31T04:22:17.675Z,92.83
2022-12-31T04:22:49.542Z,92.56
2022-12-31T04:23:21.390Z,92.52
2022-12-31T04:23:53.216Z,92.42
2022-12-31T04:24:25.224Z,92.38
2022-12-31T04:24:57.053Z,92.44
2022-12-31T04:25:28.909Z,92.33
2022-12-31T04:26:00.825Z,92.44
2022-12-31T04:26:33.003Z,92.63
2022-12-31T04:27:07.767Z,92.52
2022-12-31T04:27:43.484Z,92.43
2022-12-31T04:28:15.555Z,92.38
2022-12-31T04:28:48.045Z,92.53
2022-12-31T04:29:19.907Z,92.30
2022-12-31T04:29:51.734Z,92.04
2022-12-31T04:30:23.564Z,92.33
2022-12-31T04:30:55.448Z,92.65
2022-12-31T04:31:27.864Z,92.71
2022-12-31T04:31:59.764Z,92.70
2022-12-31T04:32:31.610Z,92.36
2022-12-31T04:33:03.924Z,92.40
2022-12-31T04:33:35.741Z,92.24
2022-12-31T04:34:07.728Z,91.92
2022-12-31T04:34:39.714Z,91.77
2022-12-31T04:35:12.194Z,91.87
2022-12-31T04:35:44.294Z,92.14
2022-12-31T04:36:16.212Z,92.58
2022-12-31T04:36:48.072Z,92.80
2022-12-31T04:37:19.921Z,92.74
2022-12-31T04:37:51.767Z,92.59
2022-12-31T04:38:23.980Z,92.28
2022-12-31T04:38:56.001Z,92.18
2022-12-31T04:39:28.158Z,92.28
2022-12-31T04:40:05.406Z,92.34
2022-12-31T04:40:58.228Z,92.29
2022-12-31T04:41:30.139Z,93.19
2022-12-31T04:42:02.033Z,93.09
2022-12-31T04:42:34.708Z,93.01
2022-12-31T04:43:06.636Z,92.53
2022-12-31T04:43:38.856Z,92.62
2022-12-31T04:44:10.808Z,92.48
2022-12-31T04:44:43.360Z,92.28
2022-12-31T04:45:15.224Z,92.32
2022-12-31T04:45:47.683Z,92.31
2022-12-31T04:46:22.783Z,92.11
2022-12-31T04:46:55.133Z,92.07
2022-12-31T04:47:26.972Z,92.03
2022-12-31T04:47:58.902Z,91.62
2022-12-31T04:48:30.860Z,92.35
2022-12-31T04:49:03.780Z,93.10
2022-12-31T04:49:35.730Z,93.08
2022-12-31T04:50:08.103Z,92.91
2022-12-31T04:50:40.002Z,92.86
2022-12-31T04:51:12.207Z,92.99
2022-12-31T04:51:44.088Z,92.97
2022-12-31T04:52:15.902Z,92.95
2022-12-31T04:52:47.827Z,92.91
2022-12-31T04:53:19.661Z,93.01
2022-12-31T04:53:51.870Z,93.27
2022-12-31T04:54:24.135Z,93.37
2022-12-31T04:54:56.039Z,93.37
2022-12-31T04:55:27.874Z,93.32
2022-12-31T04:55:59.713Z,93.17
2022-12-31T04:56:32.856Z,93.05
2022-12-31T04:57:04.694Z,92.79
2022-12-31T04:57:36.543Z,92.87
2022-12-31T04:58:08.385Z,92.59
2022-12-31T04:58:40.732Z,92.58
2022-12-31T04:59:13.006Z,92.58
2022-12-31T04:59:45.161Z,92.91
2022-12-31T05:00:17.303Z,93.08
2022-12-31T05:00:51.996Z,93.36
2022-12-31T05:01:24.428Z,93.17
2022-12-31T05:01:56.508Z,93.06
2022-12-31T05:02:30.149Z,93.15
2022-12-31T05:03:02.188Z,93.33
2022-12-31T05:03:34.954Z,93.61
2022-12-31T05:04:07.056Z,93.52
2022-12-31T05:04:39.110Z,93.37
2022-12-31T05:05:11.323Z,93.28
2022-12-31T05:05:43.583Z,93.48
2022-12-31T05:06:18.366Z,93.37
2022-12-31T05:06:50.233Z,93.51
2022-12-31T05:07:22.096Z,93.41
2022-12-31T05:07:53.934Z,93.69
2022-12-31T05:08:25.793Z,93.94
2022-12-31T05:08:57.747Z,93.91
2022-12-31T05:09:29.774Z,93.69
2022-12-31T05:10:01.673Z,93.58
2022-12-31T05:10:33.874Z,93.67
2022-12-31T05:11:06.174Z,93.44
2022-12-31T05:11:38.248Z,93.23
2022-12-31T05:12:10.092Z,93.13
2022-12-31T05:12:41.946Z,93.06
2022-12-31T05:13:14.218Z,92.87
2022-12-31T05:13:46.060Z,93.21
2022-12-31T05:14:17.971Z,93.75
2022-12-31T05:14:49.852Z,93.65
2022-12-31T05:15:21.711Z,93.34
2022-12-31T05:15:53.943Z,93.24
2022-12-31T05:16:27.255Z,93.62
2022-12-31T05:17:01.089Z,93.82
2022-12-31T05:17:33.041Z,93.55
2022-12-31T05:18:04.995Z,93.38
2022-12-31T05:18:37.080Z,93.48
2022-12-31T05:19:09.630Z,93.53
2022-12-31T05:19:41.652Z,93.39
2022-12-31T05:20:13.520Z,93.37
2022-12-31T05:20:46.287Z,93.67
2022-12-31T05:21:21.212Z,93.96
2022-12-31T05:22:12.097Z,94.16
2022-12-31T05:22:44.132Z,94.19
2022-12-31T05:23:17.746Z,94.12
2022-12-31T05:23:49.740Z,93.91
2022-12-31T05:24:21.641Z,93.65
2022-12-31T05:24:53.509Z,93.51
2022-12-31T05:25:25.422Z,93.21
2022-12-31T05:25:59.583Z,93.00
2022-12-31T05:26:31.836Z,92.59
2022-12-31T05:27:03.957Z,93.18
2022-12-31T05:27:37.832Z,93.52
2022-12-31T05:28:10.195Z,93.53
2022-12-31T05:28:42.169Z,93.67
2022-12-31T05:29:14.192Z,93.71
2022-12-31T05:29:46.021Z,93.64
2022-12-31T05:30:18.789Z,93.68
2022-12-31T05:30:51.265Z,93.60
2022-12-31T05:31:23.318Z,93.66
2022-12-31T05:31:55.503Z,93.45
2022-12-31T05:32:27.548Z,94.41
2022-12-31T05:32:59.435Z,94.25
2022-12-31T05:33:31.467Z,94.31
2022-12-31T05:34:03.326Z,93.71
2022-12-31T05:34:35.160Z,93.82
2022-12-31T05:35:07.706Z,93.57
2022-12-31T05:35:39.560Z,93.54
2022-12-31T05:36:11.475Z,93.46
2022-12-31T05:36:43.330Z,93.40
2022-12-31T05:37:15.461Z,93.71
2022-12-31T05:37:47.323Z,93.29
2022-12-31T05:38:19.147Z,93.02
2022-12-31T05:38:51.011Z,93.31
2022-12-31T05:39:22.886Z,93.64
2022-12-31T05:39:56.732Z,93.41
2022-12-31T05:40:28.993Z,95.26
2022-12-31T05:41:05.936Z,94.45
2022-12-31T05:41:37.749Z,94.47
2022-12-31T05:42:09.590Z,94.74
2022-12-31T05:42:41.744Z,94.57
2022-12-31T05:43:13.612Z,94.06
2022-12-31T05:43:45.445Z,93.86
2022-12-31T05:44:17.284Z,93.67
2022-12-31T05:44:49.199Z,93.68
2022-12-31T05:45:26.812Z,93.27
2022-12-31T05:46:03.371Z,93.57
2022-12-31T05:46:35.227Z,93.80
2022-12-31T05:47:07.081Z,93.93
2022-12-31T05:47:40.437Z,94.11
2022-12-31T05:48:12.611Z,94.33
2022-12-31T05:48:44.479Z,94.38
2022-12-31T05:49:16.338Z,94.33
2022-12-31T05:49:48.297Z,94.31
2022-12-31T05:50:20.193Z,94.25
2022-12-31T05:50:59.263Z,94.22
2022-12-31T05:51:31.142Z,94.35
2022-12-31T05:52:03.005Z,94.34
2022-12-31T05:52:34.890Z,94.45
2022-12-31T05:53:06.740Z,94.38
2022-12-31T05:53:38.885Z,94.23
2022-12-31T05:54:10.767Z,93.95
2022-12-31T05:54:42.672Z,94.23
2022-12-31T05:55:14.625Z,94.40
2022-12-31T05:55:47.808Z,94.27
2022-12-31T05:56:20.625Z,94.43
2022-12-31T05:56:52.643Z,94.95
2022-12-31T05:57:24.558Z,95.02
2022-12-31T05:57:56.749Z,94.92
2022-12-31T05:58:28.701Z,94.76
2022-12-31T05:59:00.869Z,94.79
2022-12-31T05:59:32.887Z,94.81
2022-12-31T06:00:07.113Z,95.10
2022-12-31T06:00:46.158Z,95.25
2022-12-31T06:01:18.427Z,95.30
2022-12-31T06:01:50.413Z,95.24
2022-12-31T06:02:23.008Z,95.12
2022-12-31T06:02:54.921Z,94.82
2022-12-31T06:03:26.894Z,94.42
2022-12-31T06:03:58.908Z,94.32
2022-12-31T06:04:30.865Z,94.40
2022-12-31T06:05:02.759Z,94.71
2022-12-31T06:05:34.680Z,94.73
2022-12-31T06:06:06.785Z,94.58
2022-12-31T06:06:38.999Z,94.35
2022-12-31T06:07:10.816Z,94.21
2022-12-31T06:07:42.732Z,94.28
2022-12-31T06:08:14.567Z,94.02
2022-12-31T06:08:50.595Z,93.79
2022-12-31T06:09:22.706Z,93.94
2022-12-31T06:09:54.578Z,94.20
2022-12-31T06:10:26.457Z,94.59
2022-12-31T06:10:58.390Z,94.87
2022-12-31T06:11:30.595Z,95.05
2022-12-31T06:12:02.879Z,95.04
2022-12-31T06:12:35.476Z,94.83
2022-12-31T06:13:08.488Z,94.60
2022-12-31T06:13:41.402Z,94.44
2022-12-31T06:14:13.665Z,94.35
2022-12-31T06:14:46.036Z,94.54
2022-12-31T06:15:18.060Z,94.62
2022-12-31T06:15:50.053Z,94.44
2022-12-31T06:16:22.033Z,94.25
2022-12-31T06:16:53.928Z,94.12
2022-12-31T06:17:26.093Z,94.11
2022-12-31T06:17:57.933Z,94.08
2022-12-31T06:18:29.790Z,94.53
2022-12-31T06:19:02.468Z,94.92
2022-12-31T06:19:34.434Z,95.34
2022-12-31T06:20:12.418Z,95.44
2022-12-31T06:20:45.038Z,95.27
2022-12-31T06:21:18.339Z,95.01
2022-12-31T06:21:50.749Z,94.62
2022-12-31T06:22:22.831Z,94.29
2022-12-31T06:22:54.942Z,93.99
2022-12-31T06:23:26.966Z,93.54
2022-12-31T06:23:59.027Z,93.42
2022-12-31T06:24:30.984Z,93.38
2022-12-31T06:25:03.069Z,93.61
2022-12-31T06:25:37.000Z,93.57
2022-12-31T06:26:09.174Z,94.15
2022-12-31T06:26:41.091Z,94.25
2022-12-31T06:27:12.964Z,94.10
2022-12-31T06:27:44.818Z,93.99
2022-12-31T06:28:20.421Z,94.05
2022-12-31T06:28:52.668Z,94.11
2022-12-31T06:29:24.584Z,94.24
2022-12-31T06:29:56.495Z,94.49
2022-12-31T06:30:28.401Z,94.98
2022-12-31T06:31:01.178Z,95.04
2022-12-31T06:31:33.324Z,94.78
2022-12-31T06:32:05.655Z,95.03
2022-12-31T06:32:37.566Z,95.10
2022-12-31T06:33:09.468Z,94.90
2022-12-31T06:33:42.079Z,94.68
2022-12-31T06:34:13.953Z,94.61
2022-12-31T06:34:45.832Z,94.37
2022-12-31T06:35:17.794Z,94.40
2022-12-31T06:35:49.669Z,93.87
2022-12-31T06:36:22.388Z,94.09
2022-12-31T06:36:54.276Z,94.64
2022-12-31T06:37:26.139Z,94.62
2022-12-31T06:37:58.033Z,93.96
2022-12-31T06:38:32.742Z,94.07
2022-12-31T06:39:05.222Z,94.16
2022-12-31T06:39:37.103Z,93.91
2022-12-31T06:40:09.629Z,93.87
2022-12-31T06:40:41.467Z,93.97
2022-12-31T06:41:15.771Z,94.21
2022-12-31T06:41:47.636Z,94.23
2022-12-31T06:42:19.499Z,93.74
2022-12-31T06:42:56.055Z,93.45
2022-12-31T06:43:32.189Z,93.19
2022-12-31T06:44:04.470Z,93.03
2022-12-31T06:44:36.304Z,92.97
2022-12-31T06:45:08.640Z,92.88
2022-12-31T06:45:40.577Z,92.96
2022-12-31T06:46:15.332Z,92.98
2022-12-31T06:46:47.375Z,92.97
2022-12-31T06:47:21.089Z,92.86
2022-12-31T06:47:53.047Z,92.77
2022-12-31T06:48:24.888Z,92.93
2022-12-31T06:48:56.814Z,93.77
2022-12-31T06:49:29.133Z,94.35
2022-12-31T06:50:01.009Z,94.33
2022-12-31T06:50:33.003Z,93.90
2022-12-31T06:51:09.550Z,94.14
2022-12-31T06:51:46.205Z,94.40
2022-12-31T06:52:18.151Z,94.56
2022-12-31T06:52:50.001Z,94.13
2022-12-31T06:53:21.983Z,93.73
2022-12-31T06:53:53.943Z,93.50
2022-12-31T06:54:25.775Z,93.60
2022-12-31T06:54:58.425Z,93.60
2022-12-31T06:55:30.922Z,93.31
2022-12-31T06:56:07.251Z,92.96
2022-12-31T06:56:39.741Z,92.79
2022-12-31T06:57:12.216Z,92.78
2022-12-31T06:57:47.738Z,92.74
2022-12-31T06:58:19.981Z,92.81
2022-12-31T06:58:52.613Z,92.96
2022-12-31T06:59:27.983Z,93.02
2022-12-31T07:00:00.415Z,93.04
2022-12-31T07:00:32.600Z,92.68
2022-12-31T07:01:29.799Z,92.58
2022-12-31T07:02:01.910Z,92.75
2022-12-31T07:02:45.781Z,92.75
2022-12-31T07:03:44.828Z,93.19
2022-12-31T07:04:47.569Z,93.84
2022-12-31T07:05:22.682Z,94.37
2022-12-31T07:06:13.666Z,94.17
2022-12-31T07:07:14.001Z,94.44
2022-12-31T07:07:51.676Z,94.50
2022-12-31T07:08:48.521Z,94.15
2022-12-31T07:09:44.469Z,93.73
2022-12-31T07:10:41.092Z,94.13
2022-12-31T07:11:26.530Z,94.83
2022-12-31T07:12:15.311Z,94.84
2022-12-31T07:13:14.382Z,94.44
2022-12-31T07:14:03.163Z,93.71
2022-12-31T07:14:34.966Z,93.33
2022-12-31T07:15:07.098Z,93.12
2022-12-31T07:15:47.957Z,92.83
2022-12-31T07:16:28.792Z,92.44
2022-12-31T07:17:20.887Z,92.01
2022-12-31T07:18:17.528Z,91.54
2022-12-31T07:18:57.649Z,91.55
2022-12-31T07:19:29.476Z,91.12
2022-12-31T07:20:09.985Z,91.21
2022-12-31T07:20:42.264Z,91.57
2022-12-31T07:21:18.274Z,91.83
2022-12-31T07:21:53.545Z,91.88
2022-12-31T07:22:25.643Z,91.65
2022-12-31T07:22:57.815Z,92.08
2022-12-31T07:23:29.848Z,92.38
2022-12-31T07:24:02.067Z,93.62
2022-12-31T07:24:34.211Z,93.70
2022-12-31T07:25:07.224Z,93.96
2022-12-31T07:25:44.513Z,94.46
2022-12-31T07:26:30.857Z,94.49
2022-12-31T07:27:39.937Z,94.40
2022-12-31T07:28:34.386Z,94.25
2022-12-31T07:29:16.969Z,93.69
2022-12-31T07:30:11.853Z,93.27
2022-12-31T07:30:56.779Z,92.77
2022-12-31T07:31:47.599Z,92.67